Accueil
METAR-TAF:

METAR-TAF

Aéroports :

Erzurum, Turquie

latitude: 39-55N, longitude: 041-16E, altitude: 1756 m

Observation

Le bulletin a été fait il y a 38 minutes, à 23:20 UTC
Vent 2 kt de ouest/sud-ouest
Température -19°C
Humidité 84%
Pression 1025 hPa
Visibilité 10 km ou plus
pas de nuages en-dessous de 1500 mètres et pas de cumulonimbus.

METAR: LTCE 262320Z 24002KT CAVOK M19/M21 Q1025 NOSIG RMK RWY08R VRB02KT RWY26R VRB03KT RWY08L 17002KT

Heure: 02:58 (23:58 UTC)

Prévision

Le bulletin a été fait il y a 1 heure et 18 minutes, à 22:40 UTC
Prévision valable du 27 à 00 UTC au 27 à 24 UTC
Vent 2 kt de direction variable
Visibilité 10 km ou plus
pas de nuages en-dessous de 1500 mètres et pas de cumulonimbus.

TAF: LTCE 262240Z 2700/2724 VRB02KT CAVOK

Observations et prévisions météorologiques de plus de 4000 aéroports (messages METAR et TAF).

Les stations disponibles sont représentées par des disques jaunes et rouges sur la carte.

Passer la souris dessus pour voir le nom de la station.

Cliquer dessus pour voir les observations et prévisions météorologiques.

Pour changer de carte: cliquez sur les boutons verts avec une croix noire pour zoomer, sur le bouton vert avec un tiret pour effectuer un zoom arrière, ou sur les flèches vertes pour les cartes adjacentes.


METAR-TAF: